Time;durP1;ratioP1;P1;durP2;ratioP2;P2;SDS_P1;SDS_P2;PMS_P1;PMS_P2;Temp;Humidity;BMP_temperature;BMP_pressure;BME280_temperature;BME280_humidity;BME280_pressure;Samples;Min_cycle;Max_cycle;Signal;HPM_P1;HPM_P2
2023/01/29 00:02:12;;;;;;;6.45;3.58;;;;;;;;;;10113388;29;20048;-82
2023/01/29 00:07:15;;;;;;;6.55;3.90;;;;;;;;;;10093768;29;20092;-83
2023/01/29 00:12:21;;;;;;;7.32;4.75;;;;;;;;;;10129758;29;20052;-83
2023/01/29 00:17:27;;;;;;;5.32;3.95;;;;;;;;;;10127257;29;20044;-83
2023/01/29 00:22:31;;;;;;;5.47;3.05;;;;;;;;;;10158350;29;20060;-82
2023/01/29 00:27:34;;;;;;;4.45;3.50;;;;;;;;;;10138504;29;20127;-82
2023/01/29 00:32:41;;;;;;;4.03;3.00;;;;;;;;;;10115846;29;20054;-83
2023/01/29 00:37:44;;;;;;;3.30;2.88;;;;;;;;;;10108669;29;20485;-82
2023/01/29 00:48:10;;;;;;;4.30;3.00;;;;;;;;;;10105955;29;20051;-83
2023/01/29 00:53:14;;;;;;;3.70;2.85;;;;;;;;;;10124884;29;20044;-83
2023/01/29 00:58:21;;;;;;;2.90;2.63;;;;;;;;;;10142814;29;20512;-83
2023/01/29 01:03:25;;;;;;;5.25;3.53;;;;;;;;;;10158621;29;20453;-83
2023/01/29 01:13:50;;;;;;;4.13;3.45;;;;;;;;;;10145510;29;20466;-83
2023/01/29 01:18:56;;;;;;;4.18;3.15;;;;;;;;;;10117785;29;20100;-83
2023/01/29 01:23:59;;;;;;;3.65;3.10;;;;;;;;;;10134871;29;20052;-84
2023/01/29 01:29:03;;;;;;;3.67;2.90;;;;;;;;;;10132344;29;20051;-83
2023/01/29 01:34:08;;;;;;;4.57;3.15;;;;;;;;;;10148902;29;20055;-83
2023/01/29 01:39:11;;;;;;;5.53;3.40;;;;;;;;;;10139959;29;20522;-83
2023/01/29 01:44:48;;;;;;;4.45;3.47;;;;;;;;;;10141454;29;20055;-83
2023/01/29 01:49:53;;;;;;;4.50;3.40;;;;;;;;;;10174384;29;20486;-83
2023/01/29 01:54:57;;;;;;;3.70;2.97;;;;;;;;;;10133101;29;20041;-82
2023/01/29 02:00:10;;;;;;;3.50;3.20;;;;;;;;;;10133933;29;20048;-82
2023/01/29 02:10:43;;;;;;;5.45;3.90;;;;;;;;;;10136886;29;20625;-83
2023/01/29 02:15:48;;;;;;;5.68;3.65;;;;;;;;;;10131104;29;20068;-83
2023/01/29 02:21:08;;;;;;;5.57;4.13;;;;;;;;;;10149575;29;20048;-84
2023/01/29 02:26:32;;;;;;;5.60;3.90;;;;;;;;;;10140861;29;20127;-82
2023/01/29 02:31:42;;;;;;;5.88;3.72;;;;;;;;;;10154340;29;20641;-83
2023/01/29 02:36:50;;;;;;;4.93;3.85;;;;;;;;;;10150098;29;20036;-83
2023/01/29 02:42:00;;;;;;;5.88;4.30;;;;;;;;;;10153662;29;20312;-83
2023/01/29 02:47:12;;;;;;;5.60;4.13;;;;;;;;;;10153325;29;20284;-82
2023/01/29 02:52:19;;;;;;;8.32;4.60;;;;;;;;;;10136199;29;20053;-83
2023/01/29 02:57:30;;;;;;;6.93;4.63;;;;;;;;;;10109901;29;20072;-81
2023/01/29 03:02:39;;;;;;;4.63;3.72;;;;;;;;;;10110527;29;20037;-83
2023/01/29 03:07:49;;;;;;;6.20;4.43;;;;;;;;;;10122352;29;20048;-84
2023/01/29 03:13:06;;;;;;;5.72;3.88;;;;;;;;;;10119944;29;20067;-83
2023/01/29 03:18:15;;;;;;;4.78;3.60;;;;;;;;;;10115787;29;20060;-83
2023/01/29 03:23:37;;;;;;;4.32;3.67;;;;;;;;;;10138040;29;20056;-83
2023/01/29 03:34:22;;;;;;;5.00;3.70;;;;;;;;;;10121945;29;20045;-82
2023/01/29 03:39:28;;;;;;;5.03;3.35;;;;;;;;;;10142497;29;20044;-81
2023/01/29 03:44:39;;;;;;;4.85;3.30;;;;;;;;;;10122082;29;20044;-82
2023/01/29 03:49:57;;;;;;;4.65;3.75;;;;;;;;;;10115053;29;20049;-83
2023/01/29 03:55:09;;;;;;;6.18;4.40;;;;;;;;;;10144891;29;20135;-82
2023/01/29 04:00:17;;;;;;;5.18;3.95;;;;;;;;;;10124650;29;20052;-83
2023/01/29 04:05:43;;;;;;;5.13;3.92;;;;;;;;;;10098606;29;20052;-82
2023/01/29 04:10:58;;;;;;;4.15;3.42;;;;;;;;;;10099927;29;20099;-81
2023/01/29 04:16:06;;;;;;;4.25;3.00;;;;;;;;;;10084550;29;20491;-82
2023/01/29 04:21:31;;;;;;;4.10;2.97;;;;;;;;;;10089239;29;20044;-81
2023/01/29 04:26:55;;;;;;;2.97;2.63;;;;;;;;;;10082051;29;20040;-81
2023/01/29 04:32:06;;;;;;;4.05;3.10;;;;;;;;;;10083068;29;20068;-82
2023/01/29 04:37:18;;;;;;;5.15;3.47;;;;;;;;;;10091915;29;20060;-81
2023/01/29 04:42:29;;;;;;;6.75;3.95;;;;;;;;;;10097783;29;20050;-84
2023/01/29 04:47:36;;;;;;;6.15;3.75;;;;;;;;;;10097072;29;20116;-82
2023/01/29 04:52:49;;;;;;;5.35;3.63;;;;;;;;;;10094177;29;20051;-83
2023/01/29 04:58:00;;;;;;;5.10;3.55;;;;;;;;;;10083119;29;20037;-81
2023/01/29 05:03:03;;;;;;;4.35;3.30;;;;;;;;;;10100420;29;20049;-81
2023/01/29 05:08:10;;;;;;;4.93;3.00;;;;;;;;;;10133391;29;20048;-82
2023/01/29 05:13:15;;;;;;;4.60;2.88;;;;;;;;;;10122966;29;20044;-81
2023/01/29 05:18:19;;;;;;;4.60;3.30;;;;;;;;;;10128483;29;20111;-83
2023/01/29 05:23:23;;;;;;;3.30;2.78;;;;;;;;;;10141866;29;20044;-82
2023/01/29 05:28:27;;;;;;;3.92;3.40;;;;;;;;;;10113699;29;20573;-80
2023/01/29 05:33:31;;;;;;;5.47;3.50;;;;;;;;;;10107801;29;20049;-82
2023/01/29 05:38:36;;;;;;;5.72;3.50;;;;;;;;;;10127183;29;20056;-83
2023/01/29 05:43:39;;;;;;;3.92;3.17;;;;;;;;;;10134389;29;20051;-83
2023/01/29 05:48:43;;;;;;;3.22;2.78;;;;;;;;;;10144440;29;20048;-82
2023/01/29 05:53:48;;;;;;;3.45;3.10;;;;;;;;;;10147254;29;20107;-83
2023/01/29 05:58:51;;;;;;;4.60;3.70;;;;;;;;;;10132063;29;20048;-83
2023/01/29 06:03:54;;;;;;;4.38;3.28;;;;;;;;;;10119270;29;20055;-84
2023/01/29 06:08:59;;;;;;;5.13;3.53;;;;;;;;;;10144569;29;20060;-83
2023/01/29 06:14:02;;;;;;;5.35;3.88;;;;;;;;;;10134897;29;20120;-82
2023/01/29 06:19:05;;;;;;;5.20;3.65;;;;;;;;;;10139958;29;20067;-82
2023/01/29 06:24:10;;;;;;;4.35;3.63;;;;;;;;;;10120931;29;20454;-82
2023/01/29 06:29:14;;;;;;;5.53;3.95;;;;;;;;;;10110309;29;20048;-82
2023/01/29 06:34:17;;;;;;;5.90;4.00;;;;;;;;;;10108101;29;20623;-83
2023/01/29 06:39:22;;;;;;;4.68;3.50;;;;;;;;;;10113209;29;20146;-83
2023/01/29 06:44:26;;;;;;;6.13;4.07;;;;;;;;;;10122512;29;20123;-82
2023/01/29 06:49:29;;;;;;;5.63;3.97;;;;;;;;;;10109501;29;20048;-80
2023/01/29 06:54:34;;;;;;;5.43;4.55;;;;;;;;;;10115881;29;20039;-80
2023/01/29 06:59:37;;;;;;;9.50;6.25;;;;;;;;;;10131614;29;20048;-82
2023/01/29 07:04:41;;;;;;;9.55;6.45;;;;;;;;;;10099399;29;20049;-81
2023/01/29 07:09:46;;;;;;;6.05;4.30;;;;;;;;;;10131493;29;20063;-80
2023/01/29 07:14:49;;;;;;;5.00;3.70;;;;;;;;;;10134074;29;20052;-81
2023/01/29 07:19:52;;;;;;;6.90;5.43;;;;;;;;;;10127922;29;20036;-81
2023/01/29 07:24:57;;;;;;;5.88;4.43;;;;;;;;;;10115007;29;20444;-80
2023/01/29 07:30:01;;;;;;;4.40;3.47;;;;;;;;;;10138575;29;20415;-81
2023/01/29 07:35:05;;;;;;;4.22;3.50;;;;;;;;;;10109769;29;20092;-81
2023/01/29 07:40:11;;;;;;;8.75;6.43;;;;;;;;;;10125145;29;20052;-81
2023/01/29 07:45:15;;;;;;;9.35;6.70;;;;;;;;;;10150625;29;20366;-81
2023/01/29 07:50:18;;;;;;;5.82;4.32;;;;;;;;;;10128207;29;20372;-80
2023/01/29 07:55:23;;;;;;;17.95;8.48;;;;;;;;;;10151103;29;20103;-81
2023/01/29 08:00:27;;;;;;;11.90;7.30;;;;;;;;;;10135331;29;20459;-81
2023/01/29 08:05:30;;;;;;;10.77;7.72;;;;;;;;;;10113112;29;20104;-80
2023/01/29 08:10:36;;;;;;;9.20;6.43;;;;;;;;;;10128644;29;20054;-80
2023/01/29 08:15:42;;;;;;;7.90;5.03;;;;;;;;;;10132826;29;20047;-79
2023/01/29 08:20:45;;;;;;;5.97;3.95;;;;;;;;;;10140000;29;20063;-79
2023/01/29 08:25:50;;;;;;;7.53;5.45;;;;;;;;;;10130578;29;20144;-83
2023/01/29 08:30:53;;;;;;;7.72;5.47;;;;;;;;;;10118339;29;20383;-83
2023/01/29 08:35:57;;;;;;;7.90;5.50;;;;;;;;;;10098739;29;20048;-83
2023/01/29 08:41:02;;;;;;;6.20;4.80;;;;;;;;;;10085725;29;20073;-83
2023/01/29 08:46:06;;;;;;;6.47;4.47;;;;;;;;;;10122683;29;20788;-83
2023/01/29 08:51:10;;;;;;;8.27;4.68;;;;;;;;;;10109814;29;20045;-82
2023/01/29 08:56:15;;;;;;;9.73;5.68;;;;;;;;;;10089512;29;20515;-83
2023/01/29 09:01:18;;;;;;;7.55;4.40;;;;;;;;;;10091395;29;20145;-83
2023/01/29 09:06:22;;;;;;;6.88;3.90;;;;;;;;;;10119340;29;20141;-83
2023/01/29 09:11:26;;;;;;;4.95;3.78;;;;;;;;;;10099549;29;20037;-82
2023/01/29 09:16:30;;;;;;;10.02;6.38;;;;;;;;;;10118054;29;20459;-82
2023/01/29 09:21:33;;;;;;;10.07;6.93;;;;;;;;;;10130985;29;20407;-82
2023/01/29 09:26:39;;;;;;;8.95;6.53;;;;;;;;;;10102007;29;20044;-82
2023/01/29 09:31:42;;;;;;;4.73;3.67;;;;;;;;;;10119991;29;20044;-82
2023/01/29 09:36:46;;;;;;;5.22;3.58;;;;;;;;;;10088792;29;20060;-83
2023/01/29 09:41:56;;;;;;;6.30;4.03;;;;;;;;;;10127524;29;20047;-82
2023/01/29 09:47:04;;;;;;;4.95;3.90;;;;;;;;;;10129759;29;20248;-82
2023/01/29 09:52:16;;;;;;;5.55;3.50;;;;;;;;;;10121825;29;20265;-82
2023/01/29 09:57:25;;;;;;;7.43;4.03;;;;;;;;;;10121921;29;20047;-82
2023/01/29 10:02:53;;;;;;;5.18;4.15;;;;;;;;;;10093721;29;20048;-82
2023/01/29 10:08:22;;;;;;;5.32;3.97;;;;;;;;;;10106530;29;20036;-83
2023/01/29 10:13:37;;;;;;;5.10;3.53;;;;;;;;;;10099356;29;20048;-86
2023/01/29 10:19:05;;;;;;;7.30;5.43;;;;;;;;;;10127619;23;20052;-79
2023/01/29 10:24:20;;;;;;;5.65;3.83;;;;;;;;;;10175703;29;20122;-79
2023/01/29 10:29:27;;;;;;;3.72;2.80;;;;;;;;;;10195092;29;20095;-79
2023/01/29 10:34:45;;;;;;;3.60;3.05;;;;;;;;;;10192650;29;20402;-79
2023/01/29 10:39:48;;;;;;;4.47;3.38;;;;;;;;;;10193805;29;20043;-79
2023/01/29 10:45:12;;;;;;;6.63;5.03;;;;;;;;;;10194289;29;20094;-78
2023/01/29 10:50:59;;;;;;;8.32;6.03;;;;;;;;;;10196785;29;20852;-80
2023/01/29 10:56:26;;;;;;;7.40;4.67;;;;;;;;;;10181828;29;20505;-78
2023/01/29 11:01:32;;;;;;;4.50;3.45;;;;;;;;;;10179796;29;21195;-78
2023/01/29 11:06:36;;;;;;;4.07;3.37;;;;;;;;;;10180802;29;20052;-79
2023/01/29 11:11:44;;;;;;;5.38;4.07;;;;;;;;;;10177923;29;20102;-77
2023/01/29 11:16:49;;;;;;;6.45;4.25;;;;;;;;;;10172327;29;20468;-79
2023/01/29 11:21:56;;;;;;;5.85;4.47;;;;;;;;;;10179357;29;20060;-79
2023/01/29 11:27:00;;;;;;;4.13;3.15;;;;;;;;;;10181658;29;20273;-79
2023/01/29 11:32:08;;;;;;;9.07;5.70;;;;;;;;;;10178811;29;20035;-79
2023/01/29 11:37:16;;;;;;;12.30;7.97;;;;;;;;;;10176251;29;20474;-79
2023/01/29 11:42:21;;;;;;;10.00;7.72;;;;;;;;;;10186386;29;20357;-79
2023/01/29 11:47:28;;;;;;;8.32;6.05;;;;;;;;;;10192744;29;20035;-79
2023/01/29 11:52:37;;;;;;;6.50;4.70;;;;;;;;;;10190779;29;20074;-79
2023/01/29 11:57:44;;;;;;;7.57;5.53;;;;;;;;;;10192778;29;20461;-79
2023/01/29 12:02:55;;;;;;;7.47;5.43;;;;;;;;;;10189503;29;20036;-78
2023/01/29 12:08:01;;;;;;;5.35;3.92;;;;;;;;;;10192487;29;20074;-77
2023/01/29 12:13:06;;;;;;;4.37;3.57;;;;;;;;;;10171822;29;20212;-78
2023/01/29 12:18:20;;;;;;;6.35;4.65;;;;;;;;;;10193557;29;20036;-77
2023/01/29 12:23:31;;;;;;;7.90;6.15;;;;;;;;;;10191280;29;20075;-77
2023/01/29 12:28:44;;;;;;;9.52;7.38;;;;;;;;;;10190878;29;20043;-77
2023/01/29 12:33:55;;;;;;;8.57;6.85;;;;;;;;;;10175697;29;20043;-77
2023/01/29 12:38:59;;;;;;;8.77;6.63;;;;;;;;;;10191904;29;20042;-77
2023/01/29 12:44:10;;;;;;;6.95;4.90;;;;;;;;;;10182224;29;20137;-77
2023/01/29 12:49:22;;;;;;;12.98;8.07;;;;;;;;;;10191569;29;20068;-77
2023/01/29 12:54:33;;;;;;;7.05;4.80;;;;;;;;;;10191711;29;20039;-77
2023/01/29 12:59:42;;;;;;;5.18;3.60;;;;;;;;;;10189864;29;20693;-76
2023/01/29 13:04:52;;;;;;;5.65;3.90;;;;;;;;;;10190585;29;20044;-77
2023/01/29 13:10:01;;;;;;;13.38;8.10;;;;;;;;;;10189557;29;20465;-77
2023/01/29 13:15:15;;;;;;;11.68;7.38;;;;;;;;;;10187080;29;20135;-77
2023/01/29 13:20:26;;;;;;;5.60;4.43;;;;;;;;;;10189240;29;20134;-77
2023/01/29 13:25:32;;;;;;;6.65;4.47;;;;;;;;;;10189134;29;20627;-77
2023/01/29 13:30:38;;;;;;;5.90;4.50;;;;;;;;;;10190435;29;20040;-77
2023/01/29 13:35:45;;;;;;;5.78;4.35;;;;;;;;;;10188810;29;20039;-77
2023/01/29 13:40:51;;;;;;;8.60;7.22;;;;;;;;;;10187694;29;20067;-77
2023/01/29 13:45:55;;;;;;;5.70;4.43;;;;;;;;;;10187815;29;20072;-77
2023/01/29 13:51:03;;;;;;;7.72;6.10;;;;;;;;;;10188660;29;20383;-77
2023/01/29 13:56:31;;;;;;;5.28;4.45;;;;;;;;;;10186936;29;20136;-77
2023/01/29 14:02:02;;;;;;;10.20;6.70;;;;;;;;;;10169197;29;20042;-77
2023/01/29 14:07:48;;;;;;;7.95;5.90;;;;;;;;;;10181086;29;20540;-77
2023/01/29 14:12:54;;;;;;;6.57;5.00;;;;;;;;;;10189030;29;20040;-77
2023/01/29 14:18:05;;;;;;;6.60;5.00;;;;;;;;;;10188614;29;20044;-77
2023/01/29 14:23:22;;;;;;;9.60;6.93;;;;;;;;;;10169460;29;20765;-78
2023/01/29 14:28:29;;;;;;;6.45;4.50;;;;;;;;;;10186982;29;20099;-77
2023/01/29 14:33:36;;;;;;;4.25;3.40;;;;;;;;;;10187791;29;20524;-78
2023/01/29 14:38:47;;;;;;;5.35;3.88;;;;;;;;;;10188054;29;20076;-78
2023/01/29 14:44:12;;;;;;;4.68;3.53;;;;;;;;;;10187966;29;20068;-78
2023/01/29 14:49:50;;;;;;;9.02;5.63;;;;;;;;;;10171297;29;20052;-77
2023/01/29 14:54:57;;;;;;;5.45;4.10;;;;;;;;;;10188764;29;20123;-78
2023/01/29 15:00:04;;;;;;;5.60;4.35;;;;;;;;;;10170913;29;20486;-77
2023/01/29 15:05:13;;;;;;;5.63;3.95;;;;;;;;;;10188064;29;20082;-77
2023/01/29 15:10:21;;;;;;;8.25;6.00;;;;;;;;;;10190846;29;20524;-77
2023/01/29 15:15:33;;;;;;;5.95;4.70;;;;;;;;;;10176052;29;20063;-77
2023/01/29 15:20:40;;;;;;;5.70;4.32;;;;;;;;;;10176213;29;20048;-77
2023/01/29 15:25:49;;;;;;;3.50;2.90;;;;;;;;;;10175101;29;20036;-77
2023/01/29 15:30:55;;;;;;;12.25;7.32;;;;;;;;;;10189105;29;20490;-77
2023/01/29 15:36:01;;;;;;;;;;;;;;;;;;10191042;29;20032;-77
2023/01/29 15:41:18;;;;;;;7.30;5.53;;;;;;;;;;10169422;29;19923;-77
2023/01/29 15:46:26;;;;;;;5.40;4.40;;;;;;;;;;10189377;29;20044;-77
2023/01/29 15:51:32;;;;;;;7.45;5.00;;;;;;;;;;10172911;29;20536;-78
2023/01/29 15:56:38;;;;;;;6.00;5.05;;;;;;;;;;10188077;29;20379;-77
2023/01/29 16:01:42;;;;;;;6.18;4.15;;;;;;;;;;10185182;29;20127;-77
2023/01/29 16:06:49;;;;;;;4.28;3.28;;;;;;;;;;10190061;29;20781;-77
2023/01/29 16:11:57;;;;;;;7.25;4.88;;;;;;;;;;10171703;29;20126;-77
2023/01/29 16:17:21;;;;;;;4.82;3.65;;;;;;;;;;10189877;29;20044;-77
2023/01/29 16:22:29;;;;;;;5.75;3.85;;;;;;;;;;10185925;29;20122;-77
2023/01/29 16:27:33;;;;;;;4.57;3.50;;;;;;;;;;10192255;29;20470;-77
2023/01/29 16:32:37;;;;;;;11.63;6.03;;;;;;;;;;10190551;29;20043;-77
2023/01/29 16:37:46;;;;;;;8.95;5.75;;;;;;;;;;10191789;29;20039;-77
2023/01/29 16:42:57;;;;;;;8.07;4.63;;;;;;;;;;10173594;29;20063;-77
2023/01/29 16:48:01;;;;;;;7.38;4.22;;;;;;;;;;10174765;29;20512;-77
2023/01/29 16:53:13;;;;;;;6.80;4.43;;;;;;;;;;10189996;29;20050;-78
2023/01/29 16:58:19;;;;;;;10.00;6.03;;;;;;;;;;10191690;29;20632;-77
2023/01/29 17:03:25;;;;;;;6.85;5.20;;;;;;;;;;10189099;29;20074;-77
2023/01/29 17:08:33;;;;;;;7.25;4.82;;;;;;;;;;10188189;29;20081;-77
2023/01/29 17:13:40;;;;;;;10.27;6.13;;;;;;;;;;10186033;29;20066;-77
2023/01/29 17:18:44;;;;;;;11.18;7.10;;;;;;;;;;10190344;29;20102;-77
2023/01/29 17:23:49;;;;;;;12.00;7.38;;;;;;;;;;10187455;29;20048;-77
2023/01/29 17:28:53;;;;;;;15.20;8.98;;;;;;;;;;10175497;29;20338;-77
2023/01/29 17:33:57;;;;;;;14.27;8.48;;;;;;;;;;10188873;29;20055;-77
2023/01/29 17:39:02;;;;;;;13.10;8.30;;;;;;;;;;10189818;29;20098;-77
2023/01/29 17:44:06;;;;;;;12.27;6.72;;;;;;;;;;10170378;29;20509;-77
2023/01/29 17:49:22;;;;;;;10.88;7.03;;;;;;;;;;10188666;29;20039;-77
2023/01/29 17:54:26;;;;;;;;;;;;;;;;;;10186752;29;20055;-77
2023/01/29 17:59:32;;;;;;;11.57;5.75;;;;;;;;;;10187335;29;20192;-79
2023/01/29 18:04:36;;;;;;;;;;;;;;;;;;10183888;29;20094;-78
2023/01/29 18:09:42;;;;;;;8.68;5.10;;;;;;;;;;10185336;29;19979;-78
2023/01/29 18:14:46;;;;;;;8.07;5.30;;;;;;;;;;10186315;29;20094;-78
2023/01/29 18:19:50;;;;;;;8.75;5.70;;;;;;;;;;10184553;28;20062;-78
2023/01/29 18:24:55;;;;;;;8.02;4.88;;;;;;;;;;10187585;29;20569;-79
2023/01/29 18:29:59;;;;;;;9.48;5.38;;;;;;;;;;10184755;29;20138;-79
2023/01/29 18:35:02;;;;;;;8.45;5.53;;;;;;;;;;10181785;29;20056;-79
2023/01/29 18:40:12;;;;;;;6.45;4.63;;;;;;;;;;10180444;29;20536;-79
2023/01/29 18:45:15;;;;;;;6.70;4.05;;;;;;;;;;10193316;29;20277;-79
2023/01/29 18:50:22;;;;;;;8.07;4.65;;;;;;;;;;10191730;29;20052;-79
2023/01/29 18:55:27;;;;;;;8.68;5.60;;;;;;;;;;10190233;29;20063;-79
2023/01/29 19:00:30;;;;;;;10.45;6.50;;;;;;;;;;10190164;29;20543;-78
2023/01/29 19:05:34;;;;;;;10.90;6.70;;;;;;;;;;10194243;29;20036;-79
2023/01/29 19:10:42;;;;;;;11.10;6.10;;;;;;;;;;10175994;29;20040;-79
2023/01/29 19:15:48;;;;;;;11.45;6.28;;;;;;;;;;10194446;29;20099;-78
2023/01/29 19:20:52;;;;;;;11.38;6.35;;;;;;;;;;10193425;29;20039;-78
2023/01/29 19:25:57;;;;;;;13.85;7.28;;;;;;;;;;10177313;29;20071;-78
2023/01/29 19:31:01;;;;;;;26.17;12.83;;;;;;;;;;10194187;29;20055;-79
2023/01/29 19:36:06;;;;;;;18.05;9.50;;;;;;;;;;10201989;29;20781;-78
2023/01/29 19:41:12;;;;;;;22.00;11.25;;;;;;;;;;10176676;29;20050;-78
2023/01/29 19:46:16;;;;;;;17.27;9.13;;;;;;;;;;10176057;29;20051;-78
2023/01/29 19:51:22;;;;;;;24.63;13.13;;;;;;;;;;10176385;29;20378;-78
2023/01/29 19:56:27;;;;;;;32.67;17.27;;;;;;;;;;10174963;29;20043;-78
2023/01/29 20:01:31;;;;;;;23.60;12.63;;;;;;;;;;10193340;29;20466;-78
2023/01/29 20:06:35;;;;;;;31.98;14.82;;;;;;;;;;10191566;29;20040;-78
2023/01/29 20:11:40;;;;;;;22.80;11.73;;;;;;;;;;10176632;29;20048;-78
2023/01/29 20:16:44;;;;;;;19.30;8.80;;;;;;;;;;10192572;29;20039;-78
2023/01/29 20:21:48;;;;;;;15.70;8.13;;;;;;;;;;10152896;29;20513;-78
2023/01/29 20:26:53;;;;;;;13.82;7.32;;;;;;;;;;10136610;29;20043;-78
2023/01/29 20:31:59;;;;;;;14.07;7.15;;;;;;;;;;10136899;29;20506;-78
2023/01/29 20:37:05;;;;;;;12.75;7.35;;;;;;;;;;10152438;29;20051;-78
2023/01/29 20:42:10;;;;;;;15.38;7.45;;;;;;;;;;10151463;29;20072;-78
2023/01/29 20:47:14;;;;;;;15.10;8.05;;;;;;;;;;10151206;29;20088;-78
2023/01/29 20:52:19;;;;;;;15.20;7.65;;;;;;;;;;10151476;29;20604;-78
2023/01/29 20:57:25;;;;;;;13.60;7.07;;;;;;;;;;10150732;29;20731;-78
2023/01/29 21:02:28;;;;;;;;;;;;;;;;;;10135976;29;20076;-79
2023/01/29 21:07:35;;;;;;;11.88;6.28;;;;;;;;;;10152075;29;19923;-79
2023/01/29 21:12:41;;;;;;;13.30;7.40;;;;;;;;;;10152057;29;20048;-78
2023/01/29 21:17:48;;;;;;;13.13;6.70;;;;;;;;;;10134297;29;20050;-78
2023/01/29 21:22:55;;;;;;;12.82;6.82;;;;;;;;;;10151271;29;20036;-81
2023/01/29 21:28:09;;;;;;;11.35;6.40;;;;;;;;;;10134267;29;20048;-78
2023/01/29 21:33:15;;;;;;;12.73;6.88;;;;;;;;;;10134430;29;20048;-79
2023/01/29 21:38:20;;;;;;;16.42;8.65;;;;;;;;;;10141593;29;20056;-78
2023/01/29 21:43:29;;;;;;;13.27;7.65;;;;;;;;;;10134143;29;20062;-79
2023/01/29 21:48:35;;;;;;;13.02;6.55;;;;;;;;;;10157476;29;20044;-79
2023/01/29 21:53:41;;;;;;;10.38;5.93;;;;;;;;;;10148200;29;20048;-79
2023/01/29 21:58:52;;;;;;;12.50;6.50;;;;;;;;;;10154351;29;20044;-78
2023/01/29 22:03:59;;;;;;;28.45;14.40;;;;;;;;;;10148751;29;20131;-78
2023/01/29 22:09:05;;;;;;;31.30;16.77;;;;;;;;;;10133460;29;20506;-78
2023/01/29 22:14:10;;;;;;;23.23;11.47;;;;;;;;;;10143251;29;20059;-78
2023/01/29 22:19:15;;;;;;;29.52;14.77;;;;;;;;;;10149057;29;20502;-78
2023/01/29 22:24:19;;;;;;;21.73;11.55;;;;;;;;;;10150174;29;20048;-78
2023/01/29 22:29:24;;;;;;;28.25;15.85;;;;;;;;;;10149075;29;20182;-79
2023/01/29 22:34:29;;;;;;;21.23;11.32;;;;;;;;;;10150038;29;20417;-78
2023/01/29 22:39:36;;;;;;;24.65;13.43;;;;;;;;;;10132689;29;20036;-79
2023/01/29 22:44:42;;;;;;;25.90;13.88;;;;;;;;;;10132424;29;20536;-78
2023/01/29 22:49:48;;;;;;;20.77;11.48;;;;;;;;;;10131280;29;20048;-78
2023/01/29 22:54:52;;;;;;;27.35;15.38;;;;;;;;;;10147777;29;20068;-78
2023/01/29 23:00:09;;;;;;;34.30;16.48;;;;;;;;;;10132712;29;20052;-78
2023/01/29 23:05:13;;;;;;;30.95;15.77;;;;;;;;;;10147280;29;20052;-78
2023/01/29 23:10:17;;;;;;;26.58;14.20;;;;;;;;;;10131457;29;20099;-78
2023/01/29 23:15:22;;;;;;;21.85;11.20;;;;;;;;;;10151824;29;20052;-78
2023/01/29 23:20:26;;;;;;;23.30;12.55;;;;;;;;;;10141816;29;20086;-78
2023/01/29 23:30:58;;;;;;;27.67;14.23;;;;;;;;;;10146182;29;20044;-78
2023/01/29 23:36:01;;;;;;;25.83;14.00;;;;;;;;;;10155666;29;20497;-78
2023/01/29 23:41:05;;;;;;;24.45;12.60;;;;;;;;;;10137997;29;20079;-78
2023/01/29 23:46:10;;;;;;;16.85;9.30;;;;;;;;;;10137571;29;20048;-78
2023/01/29 23:51:14;;;;;;;21.25;11.65;;;;;;;;;;10154176;29;20099;-78
2023/01/29 23:56:17;;;;;;;23.38;12.82;;;;;;;;;;10154786;29;20048;-78
